Sds Green — ICOK — position and weather

sailwx.info

Track history (hours):
 
Tides and Currents Weather Stations Pressure Air Temp Water Temp Dewpoint Dewpoint Depression Visibility Wind Speed Wind Dir Waves Ship Positions

Sds Green

Last reported at 2015-Apr-28 03:32 UTC. Time now 2015-Apr-28 03:45 UTC.
Position N 38°31' W 008°53'.

Length 108 m; draft 4.4 m.

Type: Cargo ship. MMSI: 247292200.

Date/timePositionNaut miles runAvg speedWind from/ knotsBaromVisibWave heightAir tempDewpointWater temp
2015-Apr-28 03:32N 38°31' W 008°53'0 0.0
2015-Apr-28 02:32N 38°31' W 008°53'0 0.0
2015-Apr-28 01:29N 38°31' W 008°53'0 0.1
2015-Apr-28 00:29N 38°31' W 008°53'0 0.0
2015-Apr-27 22:23N 38°31' W 008°53'0 0.0
2015-Apr-27 21:26N 38°31' W 008°53'0 0.0
2015-Apr-27 20:14N 38°31' W 008°53'0 0.0
2015-Apr-27 19:11N 38°31' W 008°53'0 0.0
2015-Apr-27 18:32N 38°31' W 008°53'0 0.0
2015-Apr-27 16:23N 38°31' W 008°53'0 0.1
2015-Apr-27 15:26N 38°31' W 008°53'0 0.0
2015-Apr-27 14:23N 38°31' W 008°53'0 0.0
2015-Apr-27 12:32N 38°31' W 008°53'0 0.0
2015-Apr-27 11:32N 38°31' W 008°53'0 0.1
2015-Apr-27 10:17N 38°31' W 008°53'0 0.0
2015-Apr-27 09:26N 38°31' W 008°53'0 0.0
2015-Apr-27 04:08N 38°31' W 008°53'0 0.1
2015-Apr-27 02:29N 38°31' W 008°53'0 0.0
2015-Apr-27 01:17N 38°31' W 008°53'0 0.0
2015-Apr-27 00:29N 38°31' W 008°53'0 0.0
2015-Apr-26 17:20N 38°31' W 008°53'0 0.0
2015-Apr-26 16:23N 38°31' W 008°53'0 0.0
2015-Apr-26 13:26N 38°31' W 008°53'0 0.0
2015-Apr-26 12:32N 38°31' W 008°53'0 0.0
2015-Apr-26 11:14N 38°31' W 008°53'0 0.1
2015-Apr-26 10:14N 38°31' W 008°53'0 0.0
2015-Apr-26 09:23N 38°31' W 008°53'0 0.0
2015-Apr-26 04:32N 38°31' W 008°53'0 0.0
2015-Apr-26 03:32N 38°31' W 008°53'0 0.0
2015-Apr-26 02:26N 38°31' W 008°53'0 0.1
2015-Apr-26 01:32N 38°31' W 008°53'0 0.0
2015-Apr-26 00:32N 38°31' W 008°53'0 0.0
2015-Apr-25 23:23N 38°31' W 008°53'0 0.0
2015-Apr-25 22:33N 38°31' W 008°53'6 6.2
2015-Apr-25 21:33N 38°26' W 008°59'3 3.3
2015-Apr-25 20:33N 38°23' W 008°60'9 8.7
2015-Apr-25 19:33N 38°15' W 009°02'9 8.8
2015-Apr-25 18:33N 38°06' W 009°04'1211.6
2015-Apr-25 17:33N 37°55' W 009°08'1212.0
2015-Apr-25 16:33N 37°43' W 009°10'1412.8
2015-Apr-25 15:29N 37°29' W 009°13'5010.1
2015-Apr-25 10:31N 36°41' W 008°55'17210.8
2015-Apr-24 18:33N 35°60' W 005°27'9 8.8
2015-Apr-24 17:33N 36°01' W 005°16'16612.4
2015-Apr-24 04:11N 36°28' W 001°53'2212.8
2015-Apr-24 02:28N 36°30' W 001°26'1612.7
2015-Apr-24 01:13N 36°32' W 001°06'812.4
2015-Apr-24 00:32N 36°33' W 000°56'1413.0
2015-Apr-23 23:26N 36°35' W 000°39'  
Track history (hours):
 
Tides and Currents Weather Stations Pressure Air Temp Water Temp Dewpoint Dewpoint Depression Visibility Wind Speed Wind Dir Waves Ship Positions

Sds Green

Last reported at 2015-Apr-28 03:32 UTC. Time now 2015-Apr-28 03:45 UTC.
Position N 38°31' W 008°53'.

Length 108 m; draft 4.4 m.

Type: Cargo ship. MMSI: 247292200.

Date/timePositionNaut miles runAvg speedWind from/ knotsBaromVisibWave heightAir tempDewpointWater temp
2015-Apr-28 03:32N 38°31' W 008°53'0 0.0
2015-Apr-28 02:32N 38°31' W 008°53'0 0.0
2015-Apr-28 01:29N 38°31' W 008°53'0 0.1
2015-Apr-28 00:29N 38°31' W 008°53'0 0.0
2015-Apr-27 22:23N 38°31' W 008°53'0 0.0
2015-Apr-27 21:26N 38°31' W 008°53'0 0.0
2015-Apr-27 20:14N 38°31' W 008°53'0 0.0
2015-Apr-27 19:11N 38°31' W 008°53'0 0.0
2015-Apr-27 18:32N 38°31' W 008°53'0 0.0
2015-Apr-27 16:23N 38°31' W 008°53'0 0.1
2015-Apr-27 15:26N 38°31' W 008°53'0 0.0
2015-Apr-27 14:23N 38°31' W 008°53'0 0.0
2015-Apr-27 12:32N 38°31' W 008°53'0 0.0
2015-Apr-27 11:32N 38°31' W 008°53'0 0.1
2015-Apr-27 10:17N 38°31' W 008°53'0 0.0
2015-Apr-27 09:26N 38°31' W 008°53'0 0.0
2015-Apr-27 04:08N 38°31' W 008°53'0 0.1
2015-Apr-27 02:29N 38°31' W 008°53'0 0.0
2015-Apr-27 01:17N 38°31' W 008°53'0 0.0
2015-Apr-27 00:29N 38°31' W 008°53'0 0.0
2015-Apr-26 17:20N 38°31' W 008°53'0 0.0
2015-Apr-26 16:23N 38°31' W 008°53'0 0.0
2015-Apr-26 13:26N 38°31' W 008°53'0 0.0
2015-Apr-26 12:32N 38°31' W 008°53'0 0.0
2015-Apr-26 11:14N 38°31' W 008°53'0 0.1
2015-Apr-26 10:14N 38°31' W 008°53'0 0.0
2015-Apr-26 09:23N 38°31' W 008°53'0 0.0
2015-Apr-26 04:32N 38°31' W 008°53'0 0.0
2015-Apr-26 03:32N 38°31' W 008°53'0 0.0
2015-Apr-26 02:26N 38°31' W 008°53'0 0.1
2015-Apr-26 01:32N 38°31' W 008°53'0 0.0
2015-Apr-26 00:32N 38°31' W 008°53'0 0.0
2015-Apr-25 23:23N 38°31' W 008°53'0 0.0
2015-Apr-25 22:33N 38°31' W 008°53'6 6.2
2015-Apr-25 21:33N 38°26' W 008°59'3 3.3
2015-Apr-25 20:33N 38°23' W 008°60'9 8.7
2015-Apr-25 19:33N 38°15' W 009°02'9 8.8
2015-Apr-25 18:33N 38°06' W 009°04'1211.6
2015-Apr-25 17:33N 37°55' W 009°08'1212.0
2015-Apr-25 16:33N 37°43' W 009°10'1412.8
2015-Apr-25 15:29N 37°29' W 009°13'5010.1
2015-Apr-25 10:31N 36°41' W 008°55'17210.8
2015-Apr-24 18:33N 35°60' W 005°27'9 8.8
2015-Apr-24 17:33N 36°01' W 005°16'16612.4
2015-Apr-24 04:11N 36°28' W 001°53'2212.8
2015-Apr-24 02:28N 36°30' W 001°26'1612.7
2015-Apr-24 01:13N 36°32' W 001°06'812.4
2015-Apr-24 00:32N 36°33' W 000°56'1413.0
2015-Apr-23 23:26N 36°35' W 000°39'  

Dump ship's entire track history